Time;durP1;ratioP1;P1;durP2;ratioP2;P2;SDS_P1;SDS_P2;PMS_P1;PMS_P2;Temp;Humidity;BMP_temperature;BMP_pressure;BME280_temperature;BME280_humidity;BME280_pressure;Samples;Min_cycle;Max_cycle;Signal;HPM_P1;HPM_P2
2023/10/05 00:00:47;;;;;;;14.40;10.07;;;23.50;55.70;;;;;;349361;28;1023;-57
2023/10/05 00:01:24;;;;;;;15.00;10.15;;;23.50;55.70;;;;;;349395;28;1692;-57
2023/10/05 00:01:30;;;;;;;13.43;9.88;;;23.50;55.60;;;;;;348932;28;1546;-56
2023/10/05 00:01:53;;;;;;;13.80;9.70;;;23.50;55.60;;;;;;349487;28;903;-56
2023/10/05 00:02:10;;;;;;;13.90;9.75;;;23.50;55.60;;;;;;349587;28;1003;-57
2023/10/05 00:02:21;;;;;;;14.35;9.63;;;23.50;55.60;;;;;;349576;28;1090;-57
2023/10/05 00:02:32;;;;;;;14.70;9.90;;;23.50;55.50;;;;;;349648;28;1027;-57
2023/10/05 00:02:43;;;;;;;13.80;10.15;;;23.50;55.50;;;;;;349571;28;998;-57
2023/10/05 00:02:56;;;;;;;13.45;10.27;;;23.50;55.50;;;;;;349581;28;999;-57
2023/10/05 00:03:10;;;;;;;14.45;10.15;;;23.50;55.60;;;;;;349611;28;1031;-57
2023/10/05 00:03:20;;;;;;;14.57;10.00;;;23.50;55.50;;;;;;349622;28;1051;-57
2023/10/05 00:03:32;;;;;;;14.50;9.80;;;23.50;55.50;;;;;;349578;28;898;-57
2023/10/05 00:03:46;;;;;;;15.30;9.88;;;23.50;55.50;;;;;;349598;28;928;-56
2023/10/05 00:03:58;;;;;;;13.90;10.07;;;23.50;55.50;;;;;;349594;28;1019;-57
2023/10/05 00:04:08;;;;;;;12.98;9.70;;;23.50;55.50;;;;;;349552;28;1042;-57
2023/10/05 00:04:19;;;;;;;13.83;10.10;;;23.50;55.50;;;;;;349607;28;1589;-57
2023/10/05 00:04:40;;;;;;;13.90;9.95;;;23.50;55.50;;;;;;349700;28;873;-56
2023/10/05 00:04:51;;;;;;;12.02;9.90;;;23.50;55.50;;;;;;349528;28;1112;-57
2023/10/05 00:05:03;;;;;;;11.23;9.85;;;23.50;55.50;;;;;;349612;28;1118;-57
2023/10/05 00:05:17;;;;;;;11.30;9.63;;;23.50;55.40;;;;;;349612;28;1102;-57
2023/10/05 00:05:27;;;;;;;13.02;9.85;;;23.50;55.50;;;;;;349529;28;1094;-57
2023/10/05 00:05:38;;;;;;;13.63;9.80;;;23.50;55.40;;;;;;349620;28;1074;-56
2023/10/05 00:05:49;;;;;;;15.50;10.15;;;23.50;55.40;;;;;;349624;28;1011;-57
2023/10/05 00:06:13;;;;;;;15.95;10.00;;;23.50;55.40;;;;;;349566;28;1027;-55
2023/10/05 00:06:24;;;;;;;12.48;9.38;;;23.50;55.40;;;;;;349552;28;1247;-56
2023/10/05 00:06:35;;;;;;;12.40;9.53;;;23.50;55.40;;;;;;349620;28;844;-57
2023/10/05 00:06:48;;;;;;;13.10;9.55;;;23.50;55.40;;;;;;349501;28;1526;-56
2023/10/05 00:06:59;;;;;;;14.18;10.05;;;23.40;55.40;;;;;;349606;28;1090;-57
2023/10/05 00:07:11;;;;;;;13.70;10.07;;;23.50;55.40;;;;;;349571;28;1079;-57
2023/10/05 00:07:32;;;;;;;14.18;10.07;;;23.40;55.40;;;;;;349520;28;1039;-57
2023/10/05 00:07:43;;;;;;;14.00;9.35;;;23.50;55.40;;;;;;349587;28;1039;-57
2023/10/05 00:07:54;;;;;;;12.50;9.27;;;23.40;55.40;;;;;;349487;28;1086;-57
2023/10/05 00:08:07;;;;;;;13.55;9.40;;;23.50;55.30;;;;;;349619;28;877;-57
2023/10/05 00:08:17;;;;;;;13.13;9.38;;;23.50;55.30;;;;;;349495;28;1098;-57
2023/10/05 00:08:28;;;;;;;14.77;9.43;;;23.40;55.30;;;;;;349615;28;1082;-57
2023/10/05 00:08:49;;;;;;;14.25;9.40;;;23.40;55.30;;;;;;349527;28;999;-56
2023/10/05 00:09:00;;;;;;;12.13;9.27;;;23.50;55.30;;;;;;349571;28;1000;-57
2023/10/05 00:09:15;;;;;;;13.37;9.23;;;23.40;55.30;;;;;;349464;28;1095;-57
2023/10/05 00:09:27;;;;;;;14.77;9.75;;;23.40;55.20;;;;;;349521;28;1134;-57
2023/10/05 00:09:43;;;;;;;14.20;10.02;;;23.40;55.20;;;;;;349557;28;999;-58
2023/10/05 00:09:55;;;;;;;14.30;9.73;;;23.40;55.30;;;;;;349568;28;1105;-56
2023/10/05 00:10:06;;;;;;;13.60;9.55;;;23.40;55.30;;;;;;349515;28;1118;-58
2023/10/05 00:10:17;;;;;;;13.93;9.57;;;23.40;55.30;;;;;;349626;28;999;-58
2023/10/05 00:10:28;;;;;;;14.68;9.70;;;23.40;55.30;;;;;;349431;28;1498;-56
2023/10/05 00:10:39;;;;;;;13.60;9.65;;;23.40;55.30;;;;;;349644;28;817;-57
2023/10/05 00:10:49;;;;;;;13.75;9.43;;;23.40;55.30;;;;;;349555;28;1111;-56
2023/10/05 00:11:00;;;;;;;12.60;9.50;;;23.40;55.30;;;;;;349525;28;1063;-57
2023/10/05 00:11:30;;;;;;;13.90;9.30;;;23.40;55.30;;;;;;349582;28;1544;-56
2023/10/05 00:11:41;;;;;;;11.45;9.15;;;23.40;55.30;;;;;;349585;28;1082;-57
2023/10/05 00:11:54;;;;;;;12.52;9.10;;;23.40;55.30;;;;;;349555;28;909;-57
2023/10/05 00:12:07;;;;;;;12.40;9.18;;;23.30;55.30;;;;;;349512;28;1557;-56
2023/10/05 00:12:22;;;;;;;13.68;9.35;;;23.30;55.30;;;;;;349510;28;1903;-57
2023/10/05 00:12:34;;;;;;;14.65;9.60;;;23.30;55.40;;;;;;349636;28;931;-57
2023/10/05 00:12:47;;;;;;;13.00;9.48;;;23.30;55.40;;;;;;349562;28;971;-58
2023/10/05 00:13:07;;;;;;;12.65;9.25;;;23.30;55.40;;;;;;349507;28;1097;-57
2023/10/05 00:13:17;;;;;;;13.77;9.32;;;23.30;55.40;;;;;;349595;28;912;-56
2023/10/05 00:13:32;;;;;;;14.43;9.35;;;23.30;55.40;;;;;;349636;28;1082;-56
2023/10/05 00:13:44;;;;;;;13.57;9.40;;;23.30;55.40;;;;;;349577;28;904;-57
2023/10/05 00:13:59;;;;;;;12.63;9.35;;;23.30;55.40;;;;;;349585;28;1047;-57
2023/10/05 00:14:12;;;;;;;11.38;9.35;;;23.20;55.50;;;;;;349504;28;1894;-57
2023/10/05 00:14:25;;;;;;;12.75;9.38;;;23.20;55.50;;;;;;349499;28;1031;-57
2023/10/05 00:14:37;;;;;;;12.00;9.23;;;23.30;55.50;;;;;;349560;28;1507;-57
2023/10/05 00:15:03;;;;;;;12.27;9.52;;;23.30;55.50;;;;;;349595;28;1113;-56
2023/10/05 00:15:14;;;;;;;12.77;9.30;;;23.20;55.50;;;;;;349562;28;1123;-56
2023/10/05 00:15:27;;;;;;;11.40;9.38;;;23.20;55.50;;;;;;349629;28;901;-58
2023/10/05 00:15:37;;;;;;;10.80;9.70;;;23.20;55.50;;;;;;349561;28;879;-56
2023/10/05 00:15:48;;;;;;;11.05;9.52;;;23.20;55.50;;;;;;349563;28;975;-57
2023/10/05 00:15:59;;;;;;;11.50;9.68;;;23.20;55.50;;;;;;349652;28;841;-58
2023/10/05 00:16:20;;;;;;;12.23;9.65;;;23.20;55.50;;;;;;349508;28;1066;-56
2023/10/05 00:16:37;;;;;;;12.55;9.63;;;23.20;55.50;;;;;;349613;28;1097;-56
2023/10/05 00:16:48;;;;;;;12.43;9.65;;;23.20;55.50;;;;;;349434;28;1504;-58
2023/10/05 00:17:00;;;;;;;13.27;9.68;;;23.20;55.50;;;;;;349656;28;877;-58
2023/10/05 00:17:11;;;;;;;15.73;9.95;;;23.20;55.50;;;;;;349599;28;857;-57
2023/10/05 00:17:22;;;;;;;16.87;10.07;;;23.20;55.50;;;;;;349623;28;1039;-57
2023/10/05 00:17:36;;;;;;;15.82;9.95;;;23.20;55.50;;;;;;349507;28;855;-56
2023/10/05 00:17:48;;;;;;;13.55;9.52;;;23.20;55.50;;;;;;349572;28;1201;-58
2023/10/05 00:17:59;;;;;;;12.57;9.52;;;23.20;55.50;;;;;;349628;28;1983;-57
2023/10/05 00:18:14;;;;;;;12.07;9.68;;;23.20;55.50;;;;;;349577;28;969;-56
2023/10/05 00:18:26;;;;;;;11.82;10.13;;;23.20;55.50;;;;;;349564;28;1101;-56
2023/10/05 00:18:37;;;;;;;12.00;10.15;;;23.20;55.50;;;;;;349573;28;1205;-57
2023/10/05 00:18:52;;;;;;;11.63;9.67;;;23.20;55.40;;;;;;349482;28;1166;-57
2023/10/05 00:19:11;;;;;;;11.30;9.50;;;23.20;55.40;;;;;;349595;28;856;-56
2023/10/05 00:19:24;;;;;;;11.20;9.60;;;23.20;55.50;;;;;;349498;28;1812;-58
2023/10/05 00:19:38;;;;;;;12.40;9.45;;;23.20;55.50;;;;;;349576;28;1170;-57
2023/10/05 00:19:49;;;;;;;13.27;9.05;;;23.20;55.40;;;;;;349530;28;915;-57
2023/10/05 00:19:59;;;;;;;13.23;8.88;;;23.20;55.40;;;;;;349601;28;1137;-57
2023/10/05 00:20:24;;;;;;;12.30;8.80;;;23.10;55.50;;;;;;349561;28;1154;-57
2023/10/05 00:20:38;;;;;;;14.68;9.27;;;23.20;55.40;;;;;;349500;28;1214;-56
2023/10/05 00:20:49;;;;;;;13.18;9.10;;;23.20;55.40;;;;;;349532;28;1039;-56
2023/10/05 00:21:00;;;;;;;13.23;9.40;;;23.20;55.50;;;;;;349570;28;975;-56
2023/10/05 00:21:11;;;;;;;13.10;9.40;;;23.10;55.50;;;;;;349574;28;1855;-57
2023/10/05 00:21:22;;;;;;;12.57;9.60;;;23.20;55.50;;;;;;349517;28;1923;-56
2023/10/05 00:21:35;;;;;;;12.75;9.40;;;23.20;55.50;;;;;;349612;28;1158;-56
2023/10/05 00:21:51;;;;;;;12.52;9.15;;;23.20;55.50;;;;;;349616;28;840;-56
2023/10/05 00:22:02;;;;;;;13.30;8.88;;;23.10;55.40;;;;;;349534;28;1106;-56
2023/10/05 00:22:13;;;;;;;12.57;8.52;;;23.10;55.50;;;;;;349631;28;971;-57
2023/10/05 00:22:24;;;;;;;13.27;8.73;;;23.10;55.50;;;;;;349549;28;1538;-57
2023/10/05 00:22:34;;;;;;;13.32;9.23;;;23.20;55.50;;;;;;349480;28;1302;-56
2023/10/05 00:22:45;;;;;;;13.48;9.55;;;23.10;55.50;;;;;;349592;28;877;-57
2023/10/05 00:22:57;;;;;;;14.43;9.93;;;23.10;55.50;;;;;;349617;28;1793;-56
2023/10/05 00:23:10;;;;;;;13.30;9.75;;;23.20;55.50;;;;;;349540;28;1256;-57
2023/10/05 00:23:21;;;;;;;12.93;10.00;;;23.20;55.50;;;;;;349497;28;1047;-56
2023/10/05 00:23:31;;;;;;;13.25;10.10;;;23.20;55.50;;;;;;349611;28;1736;-56
2023/10/05 00:23:42;;;;;;;15.20;10.23;;;23.20;55.40;;;;;;349646;28;829;-56
2023/10/05 00:23:54;;;;;;;14.23;9.63;;;23.20;55.50;;;;;;349601;28;1063;-57
2023/10/05 00:24:08;;;;;;;12.95;9.00;;;23.10;55.50;;;;;;349542;28;909;-57
2023/10/05 00:24:29;;;;;;;10.68;8.80;;;23.10;55.50;;;;;;349628;28;857;-56
2023/10/05 00:24:42;;;;;;;10.43;9.38;;;23.10;55.60;;;;;;349524;28;993;-56
2023/10/05 00:24:53;;;;;;;11.40;9.60;;;23.10;55.60;;;;;;349569;28;1007;-56
2023/10/05 00:25:05;;;;;;;12.57;9.23;;;23.10;55.50;;;;;;349558;28;1040;-56
2023/10/05 00:25:23;;;;;;;12.80;9.18;;;23.10;55.50;;;;;;349621;28;970;-57
2023/10/05 00:25:34;;;;;;;13.18;9.40;;;23.10;55.50;;;;;;349549;28;1074;-57
2023/10/05 00:25:44;;;;;;;12.65;9.65;;;23.10;55.60;;;;;;349667;28;1454;-57
2023/10/05 00:25:56;;;;;;;11.93;9.70;;;23.10;55.60;;;;;;349587;28;972;-57
2023/10/05 00:26:07;;;;;;;11.73;9.60;;;23.10;55.60;;;;;;349473;28;1947;-56
2023/10/05 00:26:23;;;;;;;12.90;9.55;;;23.10;55.60;;;;;;349544;28;1456;-56
2023/10/05 00:26:34;;;;;;;13.00;9.88;;;23.10;55.70;;;;;;349557;28;1205;-58
2023/10/05 00:26:46;;;;;;;13.90;9.94;;;23.10;55.70;;;;;;349488;28;1136;-57
2023/10/05 00:26:58;;;;;;;15.25;9.55;;;23.10;55.70;;;;;;349590;28;900;-58
2023/10/05 00:27:09;;;;;;;13.02;9.18;;;23.10;55.80;;;;;;349591;28;869;-57
2023/10/05 00:27:20;;;;;;;12.40;8.95;;;23.10;55.80;;;;;;349573;28;1116;-57
2023/10/05 00:27:31;;;;;;;12.02;9.23;;;23.10;55.80;;;;;;349564;28;1423;-58
2023/10/05 00:27:44;;;;;;;15.85;9.70;;;23.10;55.80;;;;;;349634;28;908;-56
2023/10/05 00:27:56;;;;;;;15.48;9.77;;;23.10;55.80;;;;;;349484;28;963;-57
2023/10/05 00:28:11;;;;;;;12.70;9.60;;;23.00;55.80;;;;;;349623;28;959;-57
2023/10/05 00:28:24;;;;;;;10.82;9.65;;;23.10;55.80;;;;;;349624;28;881;-57
2023/10/05 00:28:35;;;;;;;13.02;9.77;;;23.10;55.90;;;;;;349509;28;1133;-57
2023/10/05 00:29:00;;;;;;;12.95;9.57;;;23.10;55.90;;;;;;349556;28;1213;-57
2023/10/05 00:29:57;;;;;;;13.05;9.40;;;23.10;55.90;;;;;;346556;28;1052;-57
2023/10/05 00:30:08;;;;;;;12.50;9.30;;;23.00;55.90;;;;;;346566;28;1401;-58
2023/10/05 00:30:19;;;;;;;12.68;9.27;;;23.00;55.90;;;;;;346663;28;1142;-58
2023/10/05 00:30:31;;;;;;;13.95;9.35;;;23.00;56.00;;;;;;346551;28;957;-57
2023/10/05 00:30:42;;;;;;;13.75;9.35;;;23.00;56.00;;;;;;346615;28;1517;-56
2023/10/05 00:30:54;;;;;;;12.43;9.50;;;23.00;56.00;;;;;;346636;28;1131;-57
2023/10/05 00:31:06;;;;;;;11.02;9.38;;;23.00;56.00;;;;;;346824;28;1024;-56
2023/10/05 00:31:23;;;;;;;11.70;9.60;;;23.00;56.00;;;;;;349640;28;919;-58
2023/10/05 00:31:39;;;;;;;11.68;9.57;;;23.00;56.00;;;;;;349540;28;1114;-57
2023/10/05 00:31:50;;;;;;;11.55;9.40;;;23.00;56.00;;;;;;349574;28;1142;-56
2023/10/05 00:32:01;;;;;;;13.03;9.33;;;23.00;56.00;;;;;;349532;28;1092;-56
2023/10/05 00:32:18;;;;;;;14.27;9.33;;;23.00;56.00;;;;;;349493;28;1035;-57
2023/10/05 00:32:35;;;;;;;13.25;9.57;;;22.90;56.10;;;;;;349475;28;1861;-57
2023/10/05 00:32:55;;;;;;;12.60;9.65;;;23.00;56.10;;;;;;349698;28;1012;-57
2023/10/05 00:33:10;;;;;;;13.50;9.45;;;22.90;56.10;;;;;;349724;28;1117;-57
2023/10/05 00:33:23;;;;;;;14.32;9.25;;;22.90;56.20;;;;;;349722;28;857;-57
2023/10/05 00:33:34;;;;;;;13.70;9.32;;;23.00;56.10;;;;;;349784;28;939;-57
2023/10/05 00:33:47;;;;;;;12.75;9.20;;;22.90;56.10;;;;;;349723;28;2108;-57
2023/10/05 00:33:58;;;;;;;12.77;9.27;;;23.00;56.10;;;;;;349834;28;837;-57
2023/10/05 00:34:12;;;;;;;11.65;9.27;;;23.00;56.20;;;;;;349724;28;1997;-57
2023/10/05 00:34:27;;;;;;;11.60;9.45;;;23.00;56.20;;;;;;349836;28;1110;-57
2023/10/05 00:34:39;;;;;;;11.93;9.45;;;22.90;56.20;;;;;;349807;28;1201;-57
2023/10/05 00:35:08;;;;;;;12.27;9.27;;;23.00;56.20;;;;;;349870;28;1062;-56
2023/10/05 00:35:27;;;;;;;12.90;9.23;;;22.90;56.30;;;;;;349861;28;1126;-56
2023/10/05 00:35:38;;;;;;;12.30;9.50;;;23.00;56.30;;;;;;349857;28;868;-57
2023/10/05 00:35:49;;;;;;;10.88;9.18;;;23.00;56.30;;;;;;349802;28;1062;-57
2023/10/05 00:36:00;;;;;;;11.93;9.27;;;22.90;56.20;;;;;;349890;28;1023;-57
2023/10/05 00:36:13;;;;;;;13.13;9.52;;;22.90;56.20;;;;;;349856;28;1027;-58
2023/10/05 00:36:24;;;;;;;12.85;9.63;;;22.90;56.30;;;;;;349815;28;980;-56
2023/10/05 00:36:39;;;;;;;11.57;9.25;;;22.90;56.20;;;;;;349837;28;1008;-56
2023/10/05 00:36:50;;;;;;;11.48;9.07;;;22.90;56.20;;;;;;349821;28;1044;-61
2023/10/05 00:37:02;;;;;;;12.27;9.45;;;22.90;56.20;;;;;;349851;28;912;-56
2023/10/05 00:37:13;;;;;;;12.95;9.38;;;23.00;56.20;;;;;;349878;28;932;-57
2023/10/05 00:37:26;;;;;;;14.05;9.35;;;22.90;56.20;;;;;;349784;28;1031;-58
2023/10/05 00:37:37;;;;;;;13.88;9.05;;;23.00;56.20;;;;;;349927;28;954;-55
2023/10/05 00:37:49;;;;;;;12.98;8.88;;;22.90;56.20;;;;;;349880;28;904;-57
2023/10/05 00:38:23;;;;;;;11.00;8.93;;;22.90;56.20;;;;;;349897;28;932;-56
2023/10/05 00:38:31;;;;;;;13.15;9.27;;;22.90;56.20;;;;;;349483;28;1393;-57
2023/10/05 00:38:43;;;;;;;12.83;9.33;;;22.90;56.30;;;;;;349901;28;1022;-56
2023/10/05 00:39:01;;;;;;;13.93;9.68;;;22.90;56.30;;;;;;349738;28;1098;-56
2023/10/05 00:39:12;;;;;;;12.68;9.55;;;22.90;56.30;;;;;;349799;28;1135;-56
2023/10/05 00:39:29;;;;;;;13.55;9.75;;;22.90;56.30;;;;;;349846;28;944;-56
2023/10/05 00:39:46;;;;;;;14.65;9.57;;;22.90;56.30;;;;;;349741;28;1102;-56
2023/10/05 00:39:56;;;;;;;14.27;9.30;;;22.90;56.30;;;;;;349827;28;1122;-56
2023/10/05 00:40:11;;;;;;;14.47;9.50;;;22.90;56.30;;;;;;349840;28;1103;-57
2023/10/05 00:40:36;;;;;;;12.82;9.05;;;22.90;56.30;;;;;;349825;28;1098;-56
2023/10/05 00:40:57;;;;;;;12.60;9.55;;;22.90;56.40;;;;;;349826;28;1815;-56
2023/10/05 00:41:09;;;;;;;11.27;8.93;;;22.90;56.40;;;;;;349805;28;1031;-56
2023/10/05 00:41:22;;;;;;;12.30;8.80;;;22.90;56.40;;;;;;349855;28;1000;-56
2023/10/05 00:41:32;;;;;;;11.52;8.65;;;22.90;56.40;;;;;;349820;28;1924;-56
2023/10/05 00:41:43;;;;;;;10.57;8.73;;;22.90;56.40;;;;;;349825;28;1347;-55
2023/10/05 00:42:08;;;;;;;10.70;9.00;;;22.90;56.40;;;;;;349883;28;1095;-56
2023/10/05 00:42:19;;;;;;;12.93;9.55;;;22.90;56.40;;;;;;349837;28;932;-57
2023/10/05 00:42:30;;;;;;;13.60;9.50;;;22.90;56.40;;;;;;349775;28;1083;-58
2023/10/05 00:42:41;;;;;;;13.10;9.88;;;22.80;56.40;;;;;;349781;28;2566;-56
2023/10/05 00:42:51;;;;;;;12.50;10.23;;;22.90;56.40;;;;;;349733;28;1157;-56
2023/10/05 00:43:40;;;;;;;13.95;10.52;;;22.90;56.50;;;;;;349866;28;903;-58
2023/10/05 00:43:46;;;;;;;10.73;9.57;;;22.90;56.50;;;;;;348364;28;1305;-57
2023/10/05 00:43:57;;;;;;;10.70;9.48;;;22.90;56.50;;;;;;349807;28;1463;-57
2023/10/05 00:44:08;;;;;;;11.23;9.13;;;22.80;56.50;;;;;;349744;28;1077;-57
2023/10/05 00:44:19;;;;;;;11.37;8.93;;;22.80;56.40;;;;;;349849;28;980;-57
2023/10/05 00:44:30;;;;;;;11.87;9.37;;;22.90;56.50;;;;;;349714;28;2752;-56
2023/10/05 00:44:42;;;;;;;10.55;9.43;;;22.90;56.50;;;;;;349839;28;1047;-56
2023/10/05 00:44:53;;;;;;;10.27;9.27;;;22.90;56.50;;;;;;349735;28;1472;-57
2023/10/05 00:45:07;;;;;;;10.60;9.45;;;22.80;56.50;;;;;;349853;28;923;-56
2023/10/05 00:45:24;;;;;;;11.60;9.93;;;22.80;56.50;;;;;;349795;28;1140;-56
2023/10/05 00:45:38;;;;;;;12.40;9.63;;;22.80;56.50;;;;;;349731;28;1110;-56
2023/10/05 00:45:50;;;;;;;12.23;9.45;;;22.80;56.50;;;;;;349847;28;967;-57
2023/10/05 00:46:01;;;;;;;11.38;9.27;;;22.80;56.50;;;;;;349809;28;1001;-57
2023/10/05 00:46:13;;;;;;;11.15;9.02;;;22.80;56.50;;;;;;349852;28;1043;-55
2023/10/05 00:46:25;;;;;;;12.13;9.32;;;22.80;56.50;;;;;;349807;28;1031;-57
2023/10/05 00:46:38;;;;;;;14.88;9.63;;;22.80;56.50;;;;;;349855;28;1066;-57
2023/10/05 00:46:49;;;;;;;14.38;9.65;;;22.90;56.50;;;;;;349753;28;999;-56
2023/10/05 00:47:01;;;;;;;11.90;9.85;;;22.80;56.50;;;;;;349856;28;968;-57
2023/10/05 00:47:13;;;;;;;11.68;9.52;;;22.80;56.50;;;;;;349754;28;1039;-56
2023/10/05 00:47:24;;;;;;;10.95;9.52;;;22.80;56.50;;;;;;349844;28;971;-56
2023/10/05 00:47:35;;;;;;;12.40;10.07;;;22.80;56.50;;;;;;349848;28;973;-57
2023/10/05 00:47:48;;;;;;;13.90;10.30;;;22.80;56.50;;;;;;349747;28;894;-56
2023/10/05 00:48:13;;;;;;;15.00;9.90;;;22.80;56.50;;;;;;349833;28;1090;-56
2023/10/05 00:49:02;;;;;;;14.18;9.70;;;22.80;56.60;;;;;;349723;28;1529;-56
2023/10/05 00:49:15;;;;;;;13.20;9.60;;;22.80;56.60;;;;;;349792;28;952;-56
2023/10/05 00:49:29;;;;;;;15.35;9.65;;;22.80;56.60;;;;;;349807;28;1321;-56
2023/10/05 00:49:51;;;;;;;16.50;9.88;;;22.80;56.60;;;;;;349645;28;1000;-56
2023/10/05 00:50:04;;;;;;;15.40;9.55;;;22.80;56.60;;;;;;349765;28;1059;-57
2023/10/05 00:50:15;;;;;;;14.15;9.88;;;22.80;56.60;;;;;;349767;28;1054;-56
2023/10/05 00:50:26;;;;;;;13.80;10.52;;;22.80;56.60;;;;;;349832;28;1895;-57
2023/10/05 00:50:39;;;;;;;13.00;10.63;;;22.80;56.60;;;;;;349885;28;1886;-57
2023/10/05 00:50:51;;;;;;;12.88;9.88;;;22.80;56.60;;;;;;349746;28;1134;-57
2023/10/05 00:51:12;;;;;;;14.02;9.70;;;22.80;56.60;;;;;;349856;28;942;-55
2023/10/05 00:51:26;;;;;;;14.27;9.93;;;22.80;56.60;;;;;;349786;28;1130;-56
2023/10/05 00:51:38;;;;;;;12.30;9.85;;;22.80;56.50;;;;;;349757;28;1138;-56
2023/10/05 00:52:02;;;;;;;13.05;10.07;;;22.70;56.50;;;;;;349839;28;987;-56
2023/10/05 00:52:15;;;;;;;12.05;9.52;;;22.80;56.50;;;;;;349684;28;1035;-56
2023/10/05 00:52:28;;;;;;;12.38;9.43;;;22.80;56.60;;;;;;349858;28;1120;-56
2023/10/05 00:52:39;;;;;;;11.68;9.20;;;22.80;56.60;;;;;;349778;28;1304;-57
2023/10/05 00:52:52;;;;;;;13.70;9.35;;;22.70;56.50;;;;;;349733;28;991;-56
2023/10/05 00:53:04;;;;;;;14.23;9.63;;;22.80;56.60;;;;;;349818;28;1098;-56
2023/10/05 00:53:15;;;;;;;12.85;9.50;;;22.70;56.60;;;;;;349729;28;1095;-56
2023/10/05 00:53:28;;;;;;;13.35;9.60;;;22.80;56.50;;;;;;349820;28;1298;-56
2023/10/05 00:53:39;;;;;;;12.80;9.30;;;22.80;56.60;;;;;;349786;28;964;-57
2023/10/05 00:53:52;;;;;;;12.45;9.50;;;22.80;56.60;;;;;;349829;28;1126;-56
2023/10/05 00:54:10;;;;;;;11.82;9.60;;;22.80;56.60;;;;;;349726;28;1037;-57
2023/10/05 00:54:29;;;;;;;13.07;9.80;;;22.80;56.60;;;;;;349821;28;1315;-55
2023/10/05 00:54:51;;;;;;;13.15;9.98;;;22.70;56.60;;;;;;349795;28;858;-57
2023/10/05 00:55:12;;;;;;;12.90;10.13;;;22.80;56.50;;;;;;349701;28;1205;-58
2023/10/05 00:55:25;;;;;;;11.98;9.88;;;22.80;56.50;;;;;;349671;28;1115;-57
2023/10/05 00:55:39;;;;;;;12.15;9.75;;;22.70;56.60;;;;;;349770;28;1527;-57
2023/10/05 00:55:57;;;;;;;12.40;9.63;;;22.70;56.50;;;;;;349743;28;1078;-57
2023/10/05 00:56:11;;;;;;;13.80;9.30;;;22.80;56.60;;;;;;349800;28;1031;-57
2023/10/05 00:56:23;;;;;;;13.20;9.63;;;22.70;56.60;;;;;;349817;28;976;-56
2023/10/05 00:56:35;;;;;;;12.48;9.80;;;22.70;56.60;;;;;;349768;28;1185;-57
2023/10/05 00:56:46;;;;;;;13.48;9.65;;;22.70;56.50;;;;;;349804;28;1123;-56
2023/10/05 00:57:05;;;;;;;13.13;9.50;;;22.80;56.60;;;;;;349817;28;1058;-56
2023/10/05 00:57:23;;;;;;;11.02;9.88;;;22.70;56.50;;;;;;349806;28;1014;-56
2023/10/05 00:57:34;;;;;;;11.20;10.00;;;22.70;56.50;;;;;;349804;28;1114;-57
2023/10/05 00:57:45;;;;;;;11.88;9.82;;;22.70;56.40;;;;;;349760;28;1548;-57
2023/10/05 00:57:55;;;;;;;13.23;9.63;;;22.70;56.40;;;;;;349880;28;797;-56
2023/10/05 00:58:14;;;;;;;12.05;9.38;;;22.70;56.40;;;;;;349693;28;1073;-56
2023/10/05 00:58:35;;;;;;;12.73;9.82;;;22.70;56.40;;;;;;349786;28;1197;-58
2023/10/05 00:58:52;;;;;;;15.50;9.52;;;22.70;56.40;;;;;;349844;28;865;-56
2023/10/05 00:59:06;;;;;;;14.70;9.82;;;22.70;56.40;;;;;;349813;28;925;-57
2023/10/05 00:59:20;;;;;;;12.75;10.60;;;22.70;56.40;;;;;;349801;28;1047;-57
2023/10/05 00:59:32;;;;;;;14.45;11.55;;;22.70;56.40;;;;;;349847;28;921;-57
2023/10/05 00:59:45;;;;;;;15.63;11.70;;;22.70;56.40;;;;;;349764;28;1035;-58
2023/10/05 01:00:27;;;;;;;12.27;10.32;;;22.70;56.40;;;;;;349784;28;1080;-57
2023/10/05 01:00:50;;;;;;;11.90;10.50;;;22.70;56.40;;;;;;349785;28;995;-57
2023/10/05 01:01:05;;;;;;;14.77;10.82;;;22.70;56.40;;;;;;349800;28;853;-58
2023/10/05 01:01:23;;;;;;;14.23;10.90;;;22.70;56.40;;;;;;349785;28;1030;-57
2023/10/05 01:01:58;;;;;;;16.38;12.95;;;22.70;56.40;;;;;;349753;28;1193;-57
2023/10/05 01:02:14;;;;;;;18.60;15.70;;;22.70;56.30;;;;;;349617;28;1502;-56
2023/10/05 01:02:26;;;;;;;14.88;12.40;;;22.70;56.30;;;;;;349740;28;1199;-57
2023/10/05 01:03:03;;;;;;;13.77;11.10;;;22.70;56.30;;;;;;349713;28;1094;-58
2023/10/05 01:03:22;;;;;;;13.18;10.07;;;22.70;56.30;;;;;;349530;28;1559;-55
2023/10/05 01:03:45;;;;;;;14.68;11.00;;;22.70;56.40;;;;;;349695;28;976;-56
2023/10/05 01:04:56;;;;;;;15.73;11.20;;;22.70;56.40;;;;;;349817;28;1093;-57
2023/10/05 01:05:34;;;;;;;15.07;10.68;;;22.60;56.40;;;;;;349746;28;1130;-57
2023/10/05 01:05:50;;;;;;;12.40;9.50;;;22.60;56.50;;;;;;349506;28;1833;-56
2023/10/05 01:06:12;;;;;;;11.88;9.38;;;22.60;56.50;;;;;;349836;28;904;-57
2023/10/05 01:06:31;;;;;;;12.75;9.70;;;22.60;56.50;;;;;;349835;28;848;-57
2023/10/05 01:06:54;;;;;;;14.02;10.15;;;22.60;56.50;;;;;;349712;28;1550;-56
2023/10/05 01:07:56;;;;;;;14.13;9.60;;;22.60;56.60;;;;;;348237;28;1096;-57
2023/10/05 01:08:13;;;;;;;16.15;9.80;;;22.60;56.60;;;;;;349788;28;1098;-56
2023/10/05 01:08:15;;;;;;;13.05;9.82;;;22.50;56.60;;;;;;348150;28;1209;-57
2023/10/05 01:08:26;;;;;;;14.27;9.57;;;22.50;56.60;;;;;;349690;28;1122;-56
2023/10/05 01:08:49;;;;;;;14.38;9.90;;;22.60;56.70;;;;;;349812;28;916;-56
2023/10/05 01:09:00;;;;;;;12.95;10.23;;;22.50;56.70;;;;;;349685;28;1126;-56
2023/10/05 01:09:22;;;;;;;12.63;9.90;;;22.50;56.70;;;;;;349752;28;1086;-56
2023/10/05 01:09:40;;;;;;;12.30;10.15;;;22.50;56.70;;;;;;349684;28;1082;-56
2023/10/05 01:10:40;;;;;;;15.32;9.90;;;22.50;56.80;;;;;;349840;28;893;-57
2023/10/05 01:10:54;;;;;;;14.63;10.45;;;22.50;56.80;;;;;;349749;28;1079;-56
2023/10/05 01:11:06;;;;;;;14.05;10.88;;;22.40;56.80;;;;;;349725;28;1011;-55
2023/10/05 01:11:25;;;;;;;12.93;10.10;;;22.50;56.80;;;;;;349764;28;1098;-58
2023/10/05 01:11:43;;;;;;;12.30;9.98;;;22.40;56.90;;;;;;349792;28;1008;-56
2023/10/05 01:12:02;;;;;;;14.77;10.23;;;22.50;56.90;;;;;;349677;28;1487;-57
2023/10/05 01:12:21;;;;;;;13.82;10.35;;;22.40;57.00;;;;;;349800;28;1055;-56
2023/10/05 01:13:04;;;;;;;12.80;10.15;;;22.40;57.00;;;;;;349797;28;934;-58
2023/10/05 01:13:27;;;;;;;14.45;10.43;;;22.40;57.00;;;;;;348377;28;1763;-56
2023/10/05 01:13:38;;;;;;;13.48;10.05;;;22.40;57.10;;;;;;349777;28;1011;-57
2023/10/05 01:13:49;;;;;;;13.57;9.68;;;22.40;57.00;;;;;;349665;28;1156;-57
2023/10/05 01:14:00;;;;;;;14.68;10.00;;;22.40;57.00;;;;;;349794;28;1095;-57
2023/10/05 01:14:16;;;;;;;15.55;10.32;;;22.50;57.00;;;;;;349729;28;1501;-57
2023/10/05 01:14:45;;;;;;;15.48;10.25;;;22.40;57.00;;;;;;349716;28;995;-57
2023/10/05 01:14:59;;;;;;;12.48;9.88;;;22.40;57.10;;;;;;349775;28;977;-56
2023/10/05 01:15:16;;;;;;;12.55;10.02;;;22.40;57.10;;;;;;349726;28;886;-57
2023/10/05 01:15:33;;;;;;;12.77;9.63;;;22.40;57.10;;;;;;349726;28;1461;-57
2023/10/05 01:15:46;;;;;;;13.20;9.70;;;22.40;57.10;;;;;;349722;28;1193;-57
2023/10/05 01:15:57;;;;;;;13.48;9.43;;;22.40;57.10;;;;;;349814;28;970;-57
2023/10/05 01:16:26;;;;;;;14.82;9.77;;;22.40;57.10;;;;;;349764;28;1205;-56
2023/10/05 01:16:37;;;;;;;15.00;10.07;;;22.40;57.10;;;;;;349758;28;1213;-56
2023/10/05 01:16:48;;;;;;;13.15;10.27;;;22.40;57.20;;;;;;349798;28;1031;-56
2023/10/05 01:16:58;;;;;;;13.40;10.57;;;22.40;57.20;;;;;;349756;28;1003;-58
2023/10/05 01:17:09;;;;;;;13.63;10.75;;;22.40;57.10;;;;;;349828;28;1022;-57
2023/10/05 01:17:28;;;;;;;13.77;10.30;;;22.40;57.20;;;;;;349789;28;1011;-55
2023/10/05 01:17:39;;;;;;;13.77;10.23;;;22.40;57.10;;;;;;349694;28;1067;-57
2023/10/05 01:17:51;;;;;;;13.45;10.23;;;22.40;57.10;;;;;;349819;28;960;-57
2023/10/05 01:18:03;;;;;;;11.90;9.77;;;22.40;57.10;;;;;;349795;28;1945;-56
2023/10/05 01:18:14;;;;;;;11.43;9.60;;;22.40;57.10;;;;;;349722;28;1003;-56
2023/10/05 01:18:26;;;;;;;11.65;9.75;;;22.40;57.10;;;;;;349823;28;1801;-58
2023/10/05 01:18:40;;;;;;;11.93;9.82;;;22.40;57.10;;;;;;349704;28;1020;-56
2023/10/05 01:18:52;;;;;;;12.68;10.00;;;22.40;57.10;;;;;;349819;28;845;-57
2023/10/05 01:19:07;;;;;;;12.68;9.85;;;22.40;57.10;;;;;;349780;28;1003;-56
2023/10/05 01:19:18;;;;;;;12.73;9.65;;;22.40;57.10;;;;;;349788;28;1015;-56
2023/10/05 01:19:29;;;;;;;14.88;9.82;;;22.40;57.20;;;;;;349786;28;1460;-57
2023/10/05 01:19:42;;;;;;;15.47;9.93;;;22.40;57.10;;;;;;349760;28;1035;-58
2023/10/05 01:19:58;;;;;;;12.77;9.70;;;22.40;57.10;;;;;;349688;28;1015;-57
2023/10/05 01:20:22;;;;;;;12.77;9.90;;;22.40;57.20;;;;;;349828;28;1091;-57
2023/10/05 01:20:36;;;;;;;13.50;10.20;;;22.40;57.20;;;;;;349739;28;1155;-56
2023/10/05 01:20:49;;;;;;;15.13;10.10;;;22.40;57.20;;;;;;349685;28;999;-56
2023/10/05 01:21:02;;;;;;;14.50;10.15;;;22.40;57.20;;;;;;349777;28;1083;-57